Time;durP1;ratioP1;P1;durP2;ratioP2;P2;SDS_P1;SDS_P2;PMS_P1;PMS_P2;Temp;Humidity;BMP_temperature;BMP_pressure;BME280_temperature;BME280_humidity;BME280_pressure;Samples;Min_cycle;Max_cycle;Signal;HPM_P1;HPM_P2
2023/09/30 00:00:11;;;;;;;26.00;13.50;;;;;;;9.98;100.00;101608.38;105803;1253;60476;-49
2023/09/30 00:02:38;;;;;;;29.20;13.60;;;;;;;9.97;100.00;101602.84;105870;1257;60418;-50
2023/09/30 00:05:06;;;;;;;22.70;13.20;;;;;;;9.95;100.00;101606.11;105851;1257;73802;-49
2023/09/30 00:07:33;;;;;;;25.10;13.30;;;;;;;9.93;100.00;101601.98;105899;1256;64700;-51
2023/09/30 00:10:00;;;;;;;26.30;13.30;;;;;;;9.92;100.00;101597.66;105872;1254;71669;-50
2023/09/30 00:12:27;;;;;;;21.60;14.20;;;;;;;9.92;100.00;101599.05;105792;1256;60576;-53
2023/09/30 00:14:54;;;;;;;25.10;13.10;;;;;;;9.91;100.00;101597.14;105911;1254;60812;-51
2023/09/30 00:17:21;;;;;;;23.50;12.80;;;;;;;9.89;100.00;101593.35;105851;1256;73667;-53
2023/09/30 00:19:48;;;;;;;20.90;12.40;;;;;;;9.86;100.00;101595.42;105807;1256;64654;-51
2023/09/30 00:22:15;;;;;;;28.20;12.80;;;;;;;9.85;100.00;101594.89;105898;1254;72600;-51
2023/09/30 00:24:42;;;;;;;27.10;12.80;;;;;;;9.85;100.00;101593.85;105788;1254;60542;-50
2023/09/30 00:27:09;;;;;;;26.60;14.40;;;;;;;9.83;100.00;101591.43;105676;1257;60589;-52
2023/09/30 00:29:36;;;;;;;22.70;13.00;;;;;;;9.82;100.00;101590.05;105642;1254;73807;-50
2023/09/30 00:32:04;;;;;;;24.50;12.00;;;;;;;9.79;100.00;101588.67;105605;1254;64568;-50
2023/09/30 00:34:35;;;;;;;31.20;12.40;;;;;;;9.77;100.00;101586.42;105779;1254;72593;-52
2023/09/30 00:37:02;;;;;;;20.40;11.70;;;;;;;9.76;100.00;101584.52;105900;1254;60457;-50
2023/09/30 00:39:30;;;;;;;24.30;13.30;;;;;;;9.76;100.00;101590.21;105728;1254;60463;-51
2023/09/30 00:42:01;;;;;;;26.70;13.10;;;;;;;9.76;100.00;101586.25;105683;1254;73744;-50
2023/09/30 00:44:28;;;;;;;24.60;13.20;;;;;;;9.77;100.00;101583.83;105736;1257;64396;-50
2023/09/30 00:46:55;;;;;;;25.80;13.80;;;;;;;9.77;100.00;101578.48;105701;1257;72760;-51
2023/09/30 00:49:25;;;;;;;21.30;11.80;;;;;;;9.77;100.00;101577.10;105695;1259;61846;-51
2023/09/30 00:51:52;;;;;;;27.00;12.40;;;;;;;9.75;100.00;101572.80;105706;1260;60443;-49
2023/09/30 00:54:19;;;;;;;25.50;11.80;;;;;;;9.74;100.00;101571.09;105805;1256;74296;-50
2023/09/30 00:56:46;;;;;;;26.70;12.60;;;;;;;9.72;100.00;101568.13;105782;1253;64708;-49
2023/09/30 00:59:14;;;;;;;26.10;13.40;;;;;;;9.71;100.00;101569.66;105933;1253;71703;-49
2023/09/30 01:01:43;;;;;;;25.50;12.20;;;;;;;9.72;100.00;101569.15;105963;1254;61773;-50
2023/09/30 01:04:11;;;;;;;25.60;11.90;;;;;;;9.74;100.00;101567.29;105866;1253;60437;-50
2023/09/30 01:06:39;;;;;;;17.90;12.00;;;;;;;9.73;100.00;101562.61;105843;1253;73950;-49
2023/09/30 01:09:07;;;;;;;22.90;11.10;;;;;;;9.73;100.00;101558.14;105916;1256;64634;-51
2023/09/30 01:11:34;;;;;;;22.90;12.60;;;;;;;9.70;100.00;101557.27;105880;1254;72688;-52
2023/09/30 01:14:02;;;;;;;23.90;13.30;;;;;;;9.65;100.00;101559.15;105894;1256;60321;-51
2023/09/30 01:16:29;;;;;;;25.00;13.00;;;;;;;9.59;100.00;101558.27;105842;1254;60463;-53
2023/09/30 01:18:57;;;;;;;25.30;12.30;;;;;;;9.54;100.00;101556.53;105633;1253;72683;-52
2023/09/30 01:21:24;;;;;;;23.80;12.10;;;;;;;9.49;100.00;101554.98;105692;1258;63573;-51
2023/09/30 01:23:51;;;;;;;23.10;12.40;;;;;;;9.47;100.00;101555.82;105629;1254;72483;-50
2023/09/30 01:26:19;;;;;;;23.30;11.70;;;;;;;9.47;100.00;101552.89;105633;1257;61936;-51
2023/09/30 01:28:48;;;;;;;38.20;14.40;;;;;;;9.47;100.00;101552.20;105677;1254;60444;-50
2023/09/30 01:31:15;;;;;;;25.60;13.70;;;;;;;9.48;100.00;101545.84;105593;1254;267941;-50
2023/09/30 01:34:54;;;;;;;25.50;13.70;;;;;;;9.50;100.00;101562.20;102490;1292;603334;-50
2023/09/30 01:37:21;;;;;;;22.20;13.00;;;;;;;9.48;100.00;101548.94;104927;1267;59427;-50
2023/09/30 01:39:50;;;;;;;18.10;11.50;;;;;;;9.47;100.00;101543.41;104882;1266;60288;-49
2023/09/30 01:42:17;;;;;;;26.70;11.80;;;;;;;9.43;100.00;101547.18;104803;1267;72203;-50
2023/09/30 01:44:44;;;;;;;29.10;13.40;;;;;;;9.38;100.00;101546.30;105508;1259;64688;-50
2023/09/30 01:47:11;;;;;;;29.50;14.60;;;;;;;9.32;100.00;101544.21;105175;1265;378713;-51
2023/09/30 01:49:39;;;;;;;29.10;14.80;;;;;;;9.29;100.00;101541.80;105632;1260;61962;-50
2023/09/30 01:52:05;;;;;;;26.90;13.80;;;;;;;9.27;100.00;101542.13;105500;1256;60320;-50
2023/09/30 01:54:32;;;;;;;27.40;12.70;;;;;;;9.24;100.00;101543.14;105605;1256;72172;-51
2023/09/30 01:56:59;;;;;;;24.80;13.10;;;;;;;9.19;100.00;101541.39;105581;1262;64597;-52
2023/09/30 01:59:27;;;;;;;26.60;13.30;;;;;;;9.17;100.00;101542.60;105482;1262;71147;-50
2023/09/30 02:01:55;;;;;;;31.10;15.30;;;;;;;9.15;100.00;101537.94;105675;1260;61153;-51
2023/09/30 02:04:23;;;;;;;22.80;13.70;;;;;;;9.12;100.00;101533.80;105592;1257;60429;-49
2023/09/30 02:06:50;;;;;;;27.70;14.50;;;;;;;9.08;100.00;101533.25;105695;1257;72844;-51
2023/09/30 02:09:17;;;;;;;30.50;13.70;;;;;;;9.05;100.00;101534.45;105610;1259;64613;-52
2023/09/30 02:11:44;;;;;;;31.80;13.80;;;;;;;9.02;100.00;101531.68;105799;1256;72619;-49
2023/09/30 02:14:11;;;;;;;31.20;13.80;;;;;;;8.99;100.00;101532.35;105678;1259;62005;-50
2023/09/30 02:16:39;;;;;;;30.20;15.00;;;;;;;8.96;100.00;101527.85;105645;1257;60149;-49
2023/09/30 02:19:08;;;;;;;29.70;15.60;;;;;;;8.94;100.00;101527.48;105591;1254;73030;-51
2023/09/30 02:21:37;;;;;;;34.50;14.70;;;;;;;8.91;100.00;101529.38;105662;1259;64528;-50
2023/09/30 02:24:06;;;;;;;22.80;13.40;;;;;;;8.89;100.00;101526.95;105515;1260;72580;-51
2023/09/30 02:26:33;;;;;;;27.60;13.70;;;;;;;8.86;100.00;101526.25;105631;1256;60564;-49
2023/09/30 02:28:59;;;;;;;39.50;14.80;;;;;;;8.84;100.00;101523.14;105714;1256;59668;-51
2023/09/30 02:31:27;;;;;;;24.70;13.80;;;;;;;8.82;100.00;101520.38;105732;1259;73044;-51
2023/09/30 02:33:54;;;;;;;25.60;14.10;;;;;;;8.79;100.00;101521.39;105726;1259;64562;-52
2023/09/30 02:36:21;;;;;;;30.20;13.90;;;;;;;8.75;100.00;101522.05;105626;1257;72629;-52
2023/09/30 02:38:49;;;;;;;25.90;14.90;;;;;;;8.71;100.00;101525.13;105730;1257;60731;-49
2023/09/30 02:41:17;;;;;;;28.90;14.00;;;;;;;8.68;100.00;101523.38;105811;1255;60312;-51
2023/09/30 02:43:44;;;;;;;23.30;13.40;;;;;;;8.64;100.00;101523.70;105778;1257;72970;-50
2023/09/30 02:46:12;;;;;;;27.50;14.50;;;;;;;8.61;100.00;101522.66;105647;1255;63694;-51
2023/09/30 02:48:39;;;;;;;39.80;16.00;;;;;;;8.59;100.00;101519.38;105620;1257;72620;-50
2023/09/30 02:51:11;;;;;;;27.80;15.20;;;;;;;8.57;100.00;101522.11;105607;1257;61982;-52
2023/09/30 02:53:38;;;;;;;30.80;14.60;;;;;;;8.54;100.00;101525.35;105509;1261;60081;-50
2023/09/30 02:56:05;;;;;;;24.90;14.70;;;;;;;8.50;100.00;101524.98;105616;1257;73016;-50
2023/09/30 02:58:32;;;;;;;25.80;14.30;;;;;;;8.46;100.00;101525.95;105604;1259;64591;-52
2023/09/30 03:00:59;;;;;;;25.40;14.60;;;;;;;8.43;100.00;101524.02;105723;1256;72466;-51
2023/09/30 03:03:27;;;;;;;29.50;15.10;;;;;;;8.39;100.00;101525.38;105629;1259;60510;-51
2023/09/30 03:05:54;;;;;;;26.30;14.50;;;;;;;8.33;100.00;101527.41;105637;1256;60294;-51
2023/09/30 03:08:22;;;;;;;25.50;13.60;;;;;;;8.28;100.00;101527.55;105646;1257;73080;-51
2023/09/30 03:10:49;;;;;;;35.20;15.20;;;;;;;8.24;100.00;101528.70;105722;1259;64550;-51
2023/09/30 03:13:16;;;;;;;28.50;14.40;;;;;;;8.19;100.00;101529.00;105617;1257;72357;-52
2023/09/30 03:15:42;;;;;;;30.20;16.00;;;;;;;8.16;100.00;101526.92;105590;1258;60342;-52
2023/09/30 03:18:09;;;;;;;31.40;15.80;;;;;;;8.14;100.00;101528.96;105685;1257;60103;-52
2023/09/30 03:20:40;;;;;;;33.70;16.70;;;;;;;8.11;100.00;101528.43;105717;1257;72871;-52
2023/09/30 03:23:08;;;;;;;37.00;15.40;;;;;;;8.10;100.00;101526.52;105651;1259;64613;-49
2023/09/30 03:25:35;;;;;;;31.30;15.10;;;;;;;8.10;100.00;101526.88;105586;1259;73031;-52
2023/09/30 03:28:06;;;;;;;29.30;15.90;;;;;;;8.08;100.00;101528.91;105646;1259;60385;-51
2023/09/30 03:30:32;;;;;;;28.80;14.70;;;;;;;8.05;100.00;101529.06;105653;1257;59628;-51
2023/09/30 03:33:00;;;;;;;25.40;13.70;;;;;;;8.01;100.00;101527.66;105649;1259;73342;-51
2023/09/30 03:35:26;;;;;;;27.70;14.10;;;;;;;7.97;100.00;101529.85;105654;1259;64686;-51
2023/09/30 03:37:53;;;;;;;28.90;15.50;;;;;;;7.94;100.00;101530.14;105608;1257;72598;-56
2023/09/30 03:40:27;;;;;;;24.40;14.00;;;;;;;7.92;100.00;101530.30;105580;1259;61695;-51
2023/09/30 03:42:54;;;;;;;29.60;16.10;;;;;;;7.90;100.00;101528.39;105647;1254;60267;-51
2023/09/30 03:45:21;;;;;;;33.00;15.70;;;;;;;7.86;100.00;101528.88;105763;1259;72825;-52
2023/09/30 03:47:49;;;;;;;33.20;17.70;;;;;;;7.85;100.00;101529.21;105623;1259;64523;-52
2023/09/30 03:50:16;;;;;;;29.80;14.20;;;;;;;7.83;100.00;101529.88;105658;1255;73068;-50
2023/09/30 03:52:44;;;;;;;22.10;13.90;;;;;;;7.83;100.00;101529.20;105624;1259;61863;-51
2023/09/30 03:55:12;;;;;;;23.80;14.30;;;;;;;7.82;100.00;101529.34;105571;1257;60356;-50
2023/09/30 03:57:39;;;;;;;43.20;18.30;;;;;;;7.78;100.00;101528.98;105806;1256;73006;-50
2023/09/30 04:00:06;;;;;;;31.70;16.30;;;;;;;7.76;100.00;101533.59;105661;1259;64650;-50
2023/09/30 04:02:39;;;;;;;33.30;16.30;;;;;;;7.75;100.00;101529.98;105628;1259;72658;-50
2023/09/30 04:05:07;;;;;;;35.50;16.60;;;;;;;7.76;100.00;101532.22;105605;1259;61783;-51
2023/09/30 04:07:35;;;;;;;27.00;14.10;;;;;;;7.76;100.00;101531.70;105629;1259;59742;-51
2023/09/30 04:10:04;;;;;;;27.90;14.80;;;;;;;7.77;100.00;101533.27;105583;1259;72878;-51
2023/09/30 04:12:32;;;;;;;30.00;16.10;;;;;;;7.78;100.00;101531.02;105732;1259;63159;-51
2023/09/30 04:15:00;;;;;;;33.30;17.60;;;;;;;7.83;100.00;101530.73;105620;1256;73182;-52
2023/09/30 04:17:27;;;;;;;29.20;15.40;;;;;;;7.87;100.00;101527.52;105653;1259;61938;-51
2023/09/30 04:19:54;;;;;;;25.90;16.10;;;;;;;7.92;100.00;101528.93;105664;1256;60269;-52
2023/09/30 04:22:21;;;;;;;26.20;15.30;;;;;;;7.97;100.00;101524.86;105687;1256;71893;-50
2023/09/30 04:24:51;;;;;;;26.40;14.60;;;;;;;8.03;100.00;101526.13;105695;1259;64703;-49
2023/09/30 04:27:21;;;;;;;25.40;14.60;;;;;;;8.12;100.00;101523.27;105691;1256;71192;-49
2023/09/30 04:29:49;;;;;;;28.20;16.00;;;;;;;8.20;100.00;101521.63;105636;1259;59719;-51
2023/09/30 04:32:16;;;;;;;36.90;16.00;;;;;;;8.27;100.00;101522.55;105678;1257;60160;-51
2023/09/30 04:34:45;;;;;;;32.50;15.60;;;;;;;8.39;100.00;101520.73;105594;1259;73115;-50
2023/09/30 04:37:13;;;;;;;35.10;15.30;;;;;;;8.52;100.00;101517.77;105612;1257;63171;-49
2023/09/30 04:39:40;;;;;;;28.50;14.60;;;;;;;8.64;100.00;101516.48;105633;1259;72562;-49
2023/09/30 04:42:10;;;;;;;34.70;16.40;;;;;;;8.77;100.00;101518.10;105655;1259;60201;-50
2023/09/30 04:44:38;;;;;;;33.70;15.60;;;;;;;8.89;100.00;101509.92;105644;1257;60186;-50
2023/09/30 04:47:05;;;;;;;40.60;17.60;;;;;;;9.00;100.00;101513.92;105524;1257;73607;-51
2023/09/30 04:49:32;;;;;;;33.50;15.80;;;;;;;9.10;100.00;101513.63;105601;1259;64662;-51
2023/09/30 04:51:59;;;;;;;34.10;15.30;;;;;;;9.20;100.00;101512.65;105664;1257;72560;-53
2023/09/30 04:54:26;;;;;;;33.60;15.40;;;;;;;9.28;100.00;101516.80;105597;1259;61810;-51
2023/09/30 04:56:53;;;;;;;34.40;16.50;;;;;;;9.37;100.00;101517.37;105590;1257;59612;-51
2023/09/30 04:59:20;;;;;;;40.90;16.90;;;;;;;9.45;100.00;101516.86;105581;1259;72933;-51
2023/09/30 05:01:47;;;;;;;35.50;15.60;;;;;;;9.54;100.00;101512.75;105738;1259;64689;-48
2023/09/30 05:04:14;;;;;;;36.90;15.30;;;;;;;9.64;100.00;101512.10;105647;1257;71470;-50
2023/09/30 05:06:41;;;;;;;27.60;14.40;;;;;;;9.75;100.00;101510.05;105589;1257;61828;-50
2023/09/30 05:09:08;;;;;;;34.60;15.30;;;;;;;9.86;100.00;101510.23;105727;1256;60342;-51
2023/09/30 05:11:35;;;;;;;28.80;15.20;;;;;;;9.97;100.00;101512.48;105699;1257;72872;-50
2023/09/30 05:14:05;;;;;;;36.10;15.70;;;;;;;10.11;100.00;101516.30;105621;1259;64818;-51
2023/09/30 05:16:31;;;;;;;40.60;17.10;;;;;;;10.26;100.00;101518.20;105644;1257;72657;-50
2023/09/30 05:18:59;;;;;;;44.40;18.10;;;;;;;10.38;100.00;101516.31;105762;1259;61888;-50
2023/09/30 05:21:26;;;;;;;55.50;19.70;;;;;;;10.50;100.00;101518.91;105527;1257;60155;-50
2023/09/30 05:23:53;;;;;;;44.80;19.60;;;;;;;10.62;100.00;101523.39;105599;1259;73063;-50
2023/09/30 05:26:20;;;;;;;48.70;20.60;;;;;;;10.74;100.00;101524.73;105641;1258;63562;-50
2023/09/30 05:28:47;;;;;;;44.30;20.80;;;;;;;10.84;100.00;101526.61;105707;1257;72583;-50
2023/09/30 05:31:15;;;;;;;45.30;20.30;;;;;;;10.95;100.00;101527.80;105701;1259;61954;-50
2023/09/30 05:33:43;;;;;;;55.10;19.90;;;;;;;11.09;100.00;101530.52;105678;1256;60231;-50
2023/09/30 05:36:13;;;;;;;48.60;20.80;;;;;;;11.22;100.00;101531.85;105608;1257;72929;-50
2023/09/30 05:38:40;;;;;;;50.60;21.70;;;;;;;11.36;100.00;101542.84;105624;1262;65333;-51
2023/09/30 05:41:07;;;;;;;54.90;21.20;;;;;;;11.50;100.00;101543.30;105669;1256;72773;-52
2023/09/30 05:43:33;;;;;;;44.90;21.30;;;;;;;11.64;100.00;101552.91;105713;1259;61807;-51
2023/09/30 05:46:00;;;;;;;65.50;20.70;;;;;;;11.78;100.00;101557.33;105564;1256;60467;-51
2023/09/30 05:48:29;;;;;;;67.80;20.40;;;;;;;11.93;100.00;101572.80;105677;1254;73842;-51
2023/09/30 05:50:56;;;;;;;86.70;21.30;;;;;;;12.07;100.00;101580.01;105650;1259;64664;-51
2023/09/30 05:53:22;;;;;;;54.90;20.70;;;;;;;12.23;100.00;101592.36;105870;1256;72608;-51
2023/09/30 05:55:51;;;;;;;52.60;20.10;;;;;;;12.38;100.00;101605.76;105763;1257;61864;-49
2023/09/30 05:58:23;;;;;;;52.00;20.50;;;;;;;12.52;100.00;101618.45;105604;1270;60431;-53
2023/09/30 06:00:50;;;;;;;64.20;22.00;;;;;;;12.65;100.00;101639.83;105564;1262;73798;-52
2023/09/30 06:03:17;;;;;;;52.50;22.60;;;;;;;12.79;100.00;101663.27;105631;1259;64740;-49
2023/09/30 06:05:44;;;;;;;64.30;24.60;;;;;;;12.93;100.00;101690.16;105697;1257;72769;-51
2023/09/30 06:08:13;;;;;;;66.60;25.30;;;;;;;13.06;100.00;101721.95;105676;1259;61929;-52
2023/09/30 06:10:43;;;;;;;69.90;26.00;;;;;;;13.21;100.00;101753.01;105586;1256;60959;-50
2023/09/30 06:13:11;;;;;;;70.50;26.10;;;;;;;13.33;100.00;101784.11;105691;1255;73668;-53
2023/09/30 06:15:41;;;;;;;65.40;25.00;;;;;;;13.49;100.00;101816.24;105631;1260;63502;-51
2023/09/30 06:18:13;;;;;;;64.10;24.30;;;;;;;13.63;100.00;101847.52;105583;1256;72884;-52
2023/09/30 06:20:40;;;;;;;56.50;23.00;;;;;;;13.75;100.00;101875.68;105663;1260;60948;-50
2023/09/30 06:23:07;;;;;;;52.20;21.70;;;;;;;13.88;100.00;101900.38;105565;1256;60444;-50
2023/09/30 06:25:36;;;;;;;58.80;22.40;;;;;;;14.01;100.00;101915.36;105561;1257;74629;-51
2023/09/30 06:28:07;;;;;;;56.70;30.10;;;;;;;14.17;100.00;101925.96;105646;1259;64668;-51
2023/09/30 06:30:34;;;;;;;61.80;26.50;;;;;;;14.33;100.00;101923.01;105626;1257;72678;-51
2023/09/30 06:33:04;;;;;;;64.90;26.90;;;;;;;14.49;100.00;101905.64;105788;1259;60443;-55
2023/09/30 06:35:37;;;;;;;46.90;21.40;;;;;;;14.64;100.00;101872.96;105591;1257;60441;-52
2023/09/30 06:38:06;;;;;;;49.80;18.60;;;;;;;14.78;100.00;101827.83;105567;1259;73845;-51
2023/09/30 06:40:33;;;;;;;45.00;17.10;;;;;;;14.93;100.00;101771.99;105602;1256;64758;-52
2023/09/30 06:43:01;;;;;;;50.60;17.10;;;;;;;15.04;100.00;101711.33;105626;1257;72511;-52
2023/09/30 06:45:28;;;;;;;43.80;17.20;;;;;;;15.18;100.00;101634.92;105615;1259;60432;-56
2023/09/30 06:47:55;;;;;;;38.50;16.50;;;;;;;15.33;100.00;101539.54;105637;1256;60433;-52
2023/09/30 06:50:22;;;;;;;38.40;16.30;;;;;;;15.50;100.00;101465.78;105606;1257;74265;-52
2023/09/30 06:52:49;;;;;;;39.10;18.30;;;;;;;15.65;100.00;101377.21;105655;1259;64658;-53
2023/09/30 06:55:16;;;;;;;49.50;18.50;;;;;;;15.81;100.00;101287.87;105637;1255;72678;-54
2023/09/30 06:57:43;;;;;;;48.90;15.70;;;;;;;15.98;100.00;101234.72;105775;1257;60422;-53
2023/09/30 07:00:13;;;;;;;51.60;16.80;;;;;;;16.15;100.00;101158.48;105895;1256;60425;-53
2023/09/30 07:02:41;;;;;;;43.60;16.60;;;;;;;16.32;100.00;101094.23;105859;1254;73779;-50
2023/09/30 07:05:12;;;;;;;41.20;15.60;;;;;;;16.50;100.00;101017.68;106150;1256;64766;-51
2023/09/30 07:07:39;;;;;;;55.20;17.60;;;;;;;16.70;100.00;100926.55;105891;1256;72743;-51
2023/09/30 07:10:07;;;;;;;49.90;17.90;;;;;;;16.90;100.00;100870.26;105828;1256;60351;-50
2023/09/30 07:12:35;;;;;;;46.40;16.40;;;;;;;17.07;100.00;100842.44;105954;1253;60521;-53
2023/09/30 07:15:04;;;;;;;52.60;16.00;;;;;;;17.27;100.00;100834.33;105992;1254;73911;-52
2023/09/30 07:17:34;;;;;;;55.20;16.80;;;;;;;17.45;100.00;100845.44;105864;1253;63238;-51
2023/09/30 07:20:04;;;;;;;44.60;15.80;;;;;;;17.64;100.00;100856.71;105931;1256;72615;-52
2023/09/30 07:22:32;;;;;;;37.30;15.60;;;;;;;17.85;100.00;100871.17;105897;1256;60418;-50
2023/09/30 07:25:18;;;;;;;43.50;16.10;;;;;;;18.10;100.00;100896.36;105880;1253;60511;-56
2023/09/30 07:27:48;;;;;;;41.00;16.50;;;;;;;18.31;100.00;100927.42;106267;1255;72778;-56
2023/09/30 07:30:15;;;;;;;42.40;17.60;;;;;;;18.50;100.00;100980.59;105933;1255;64691;-55
2023/09/30 07:32:44;;;;;;;37.70;16.10;;;;;;;18.68;100.00;101033.48;105928;1254;72383;-52
2023/09/30 07:35:16;;;;;;;46.20;16.10;;;;;;;18.88;100.00;101099.05;105883;1256;60373;-51
2023/09/30 07:37:43;;;;;;;30.80;14.70;;;;;;;19.07;100.00;101143.06;106144;1254;60667;-52
2023/09/30 07:40:12;;;;;;;40.60;15.50;;;;;;;19.24;100.00;101172.21;105818;1254;73873;-51
2023/09/30 07:42:39;;;;;;;35.30;13.40;;;;;;;19.44;100.00;101196.20;105886;1255;64375;-50
2023/09/30 07:45:07;;;;;;;34.20;13.90;;;;;;;19.65;99.02;101207.52;105950;1254;72700;-51
2023/09/30 07:47:34;;;;;;;31.60;13.20;;;;;;;19.91;93.30;101224.59;105866;1256;60412;-50
2023/09/30 07:50:09;;;;;;;24.20;12.10;;;;;;;20.15;86.70;101227.72;105843;1253;60460;-50
2023/09/30 07:52:36;;;;;;;31.50;12.80;;;;;;;20.41;81.14;101221.79;106045;1254;73313;-51
2023/09/30 07:55:04;;;;;;;33.20;12.80;;;;;;;20.65;79.20;101237.82;105948;1251;64543;-51
2023/09/30 07:57:33;;;;;;;26.00;12.50;;;;;;;20.91;77.31;101233.60;105965;1254;71600;-50
2023/09/30 08:00:00;;;;;;;36.30;11.00;;;;;;;21.17;74.45;101214.08;105918;1255;60356;-50
2023/09/30 08:02:36;;;;;;;27.50;10.90;;;;;;;21.43;71.14;101184.48;105902;1253;60405;-51
2023/09/30 08:05:05;;;;;;;23.60;10.90;;;;;;;21.66;68.90;101161.54;105994;1251;73818;-51
2023/09/30 08:07:33;;;;;;;33.20;10.90;;;;;;;21.85;65.32;101071.27;105882;1256;64728;-50
2023/09/30 08:10:04;;;;;;;19.70;10.60;;;;;;;22.04;63.95;101060.52;105882;1251;72656;-50
2023/09/30 08:12:32;;;;;;;27.70;10.40;;;;;;;22.27;63.47;101075.39;105992;1254;60425;-50
2023/09/30 08:14:59;;;;;;;24.60;10.60;;;;;;;22.51;63.33;101092.14;105980;1254;60418;-52
2023/09/30 08:17:26;;;;;;;17.60;8.70;;;;;;;22.77;61.52;101010.20;106051;1251;72259;-51
2023/09/30 08:19:53;;;;;;;23.00;9.50;;;;;;;23.02;60.49;100968.08;105938;1256;63619;-50
2023/09/30 08:22:25;;;;;;;15.40;8.50;;;;;;;23.31;61.04;101034.94;105878;1253;72650;-52
2023/09/30 08:24:52;;;;;;;21.90;8.90;;;;;;;23.63;60.47;101012.08;105886;1256;60805;-50
2023/09/30 08:27:19;;;;;;;21.70;8.20;;;;;;;23.89;57.17;100782.05;106151;1251;60527;-51
2023/09/30 08:29:46;;;;;;;27.70;8.00;;;;;;;24.09;55.75;100674.13;105906;1254;73745;-50
2023/09/30 08:32:13;;;;;;;25.30;7.30;;;;;;;24.28;55.88;100727.86;106144;1256;64628;-50
2023/09/30 08:34:40;;;;;;;24.30;7.80;;;;;;;24.54;53.39;100494.83;105838;1256;72691;-52
2023/09/30 08:37:07;;;;;;;25.60;8.00;;;;;;;24.73;53.27;100498.89;106032;1256;60633;-50
2023/09/30 08:39:38;;;;;;;18.10;6.90;;;;;;;24.91;53.25;100540.04;106235;1256;60450;-51
2023/09/30 08:42:12;;;;;;;23.30;8.10;;;;;;;25.20;51.83;100402.36;105940;1254;72585;-52
2023/09/30 08:44:39;;;;;;;26.30;8.00;;;;;;;25.44;49.60;100151.94;105872;1256;64795;-50
2023/09/30 08:47:09;;;;;;;15.80;7.40;;;;;;;25.67;48.99;100062.40;106076;1256;73057;-51
2023/09/30 08:49:41;;;;;;;28.70;8.10;;;;;;;25.89;49.28;100121.26;105928;1256;60443;-52
2023/09/30 08:52:09;;;;;;;45.60;8.00;;;;;;;25.93;48.73;100088.77;105994;1256;60446;-50
2023/09/30 08:54:36;;;;;;;74.70;9.20;;;;;;;25.81;46.24;99811.16;105866;1253;73925;-51
2023/09/30 08:57:04;;;;;;;29.40;7.50;;;;;;;25.60;46.17;99786.27;105997;1256;64670;-52
2023/09/30 08:59:34;;;;;;;37.40;7.90;;;;;;;25.60;47.29;99966.02;105751;1257;71812;-50
2023/09/30 09:02:01;;;;;;;45.40;7.30;;;;;;;25.73;47.68;100045.09;105828;1256;60764;-51
2023/09/30 09:04:28;;;;;;;45.40;7.90;;;;;;;26.02;47.43;100029.40;105828;1253;60402;-51
2023/09/30 09:06:55;;;;;;;30.70;6.40;;;;;;;26.36;47.41;100019.65;106182;1254;73777;-51
2023/09/30 09:09:23;;;;;;;22.70;6.80;;;;;;;26.61;45.98;99832.83;106033;1256;64721;-52
2023/09/30 09:11:51;;;;;;;27.20;7.70;;;;;;;26.79;45.12;99703.73;105856;1256;72868;-50
2023/09/30 09:14:18;;;;;;;53.50;7.60;;;;;;;26.96;44.37;99609.02;105978;1256;60467;-52
2023/09/30 09:16:52;;;;;;;28.80;7.00;;;;;;;27.06;45.06;99693.84;106093;1251;60456;-51
2023/09/30 09:19:21;;;;;;;21.10;6.40;;;;;;;27.19;44.99;99707.27;106094;1255;73697;-51
2023/09/30 09:21:58;;;;;;;25.30;7.40;;;;;;;27.39;45.72;99820.38;105944;1256;64683;-51
2023/09/30 09:24:32;;;;;;;40.40;8.20;;;;;;;27.63;45.00;99759.05;105823;1256;72520;-52
2023/09/30 09:27:09;;;;;;;46.30;6.40;;;;;;;27.79;44.48;99669.80;106012;1253;60421;-52
2023/09/30 09:29:38;;;;;;;57.60;6.50;;;;;;;27.89;43.93;99609.86;106054;1254;60699;-51
2023/09/30 09:32:12;;;;;;;21.20;5.50;;;;;;;27.97;42.85;99474.78;105653;1257;73794;-52
2023/09/30 09:34:40;;;;;;;53.50;6.50;;;;;;;27.84;41.00;99196.00;105863;1254;64690;-52
2023/09/30 09:37:18;;;;;;;57.90;7.30;;;;;;;27.73;41.08;99164.09;105917;1251;71132;-53
2023/09/30 09:39:57;;;;;;;58.30;7.80;;;;;;;27.62;42.14;99333.38;105644;1256;60465;-52
2023/09/30 09:42:30;;;;;;;32.40;7.80;;;;;;;27.75;41.70;99338.80;105765;1257;60531;-51
2023/09/30 09:45:02;;;;;;;29.10;7.40;;;;;;;27.82;42.38;99410.62;105904;1258;73874;-52
2023/09/30 09:47:30;;;;;;;50.90;7.30;;;;;;;27.93;41.60;99297.33;105921;1255;63141;-50
2023/09/30 09:49:57;;;;;;;34.80;6.70;;;;;;;27.97;40.91;99237.80;105735;1259;72492;-51
2023/09/30 09:52:24;;;;;;;18.20;5.40;;;;;;;27.97;41.21;99261.42;105864;1256;60310;-52
2023/09/30 09:54:51;;;;;;;33.90;7.30;;;;;;;28.00;41.31;99270.88;105759;1253;60511;-51
2023/09/30 09:57:19;;;;;;;19.60;6.40;;;;;;;28.04;40.85;99254.63;105704;1256;74389;-51
2023/09/30 09:59:49;;;;;;;46.30;7.00;;;;;;;28.01;39.90;99094.34;105915;1256;64669;-51
2023/09/30 10:02:17;;;;;;;17.30;5.80;;;;;;;28.04;41.47;99283.64;105809;1254;71483;-52
2023/09/30 10:04:45;;;;;;;21.70;6.30;;;;;;;28.21;40.46;99236.64;106002;1258;60335;-51
2023/09/30 10:07:16;;;;;;;12.30;6.40;;;;;;;28.29;40.35;99189.42;106047;1256;60454;-51
2023/09/30 10:09:45;;;;;;;17.30;5.60;;;;;;;28.38;38.95;99006.04;105982;1251;73513;-51
2023/09/30 10:12:12;;;;;;;10.50;5.70;;;;;;;28.33;38.19;98854.05;105861;1254;64861;-52
2023/09/30 10:14:39;;;;;;;23.30;6.10;;;;;;;28.27;38.48;98859.30;105720;1257;73404;-51
2023/09/30 10:17:07;;;;;;;20.70;6.00;;;;;;;28.30;39.03;98943.59;105985;1256;60635;-51
2023/09/30 10:19:34;;;;;;;16.50;6.30;;;;;;;28.35;38.96;98933.36;105922;1256;60888;-51
2023/09/30 10:22:19;;;;;;;7.10;5.00;;;;;;;28.33;39.98;99029.90;106037;1256;73733;-52
2023/09/30 10:24:47;;;;;;;13.60;6.20;;;;;;;28.41;39.03;98957.33;105936;1257;64756;-51
2023/09/30 10:27:31;;;;;;;16.80;5.80;;;;;;;28.54;38.79;98915.54;105876;1251;72794;-51
2023/09/30 10:30:00;;;;;;;20.60;8.70;;;;;;;28.66;38.23;98809.43;106099;1258;60335;-51
2023/09/30 10:32:52;;;;;;;16.90;6.40;;;;;;;28.73;37.73;98751.20;106117;1256;60511;-51
2023/09/30 10:35:20;;;;;;;14.90;5.90;;;;;;;28.63;36.07;98510.79;105898;1256;73698;-51
2023/09/30 10:37:48;;;;;;;12.20;5.50;;;;;;;28.48;37.12;98574.31;105808;1256;62728;-50
2023/09/30 10:40:29;;;;;;;24.40;6.10;;;;;;;28.43;38.16;98757.48;105822;1255;72562;-52
2023/09/30 10:42:57;;;;;;;52.50;7.50;;;;;;;28.37;38.99;98894.33;105950;1264;60306;-52
2023/09/30 10:45:46;;;;;;;14.90;5.90;;;;;;;28.39;40.04;99058.27;105946;1255;60455;-51
2023/09/30 10:48:28;;;;;;;16.50;5.70;;;;;;;28.58;39.50;99047.54;106237;1254;74233;-51
2023/09/30 10:50:58;;;;;;;24.40;6.70;;;;;;;28.76;39.17;98994.79;106046;1256;64671;-52
2023/09/30 10:53:27;;;;;;;28.10;5.90;;;;;;;28.70;37.92;98824.41;105941;1264;72581;-53
2023/09/30 10:55:56;;;;;;;10.80;5.30;;;;;;;28.68;38.23;98849.19;105976;1251;61045;-52
2023/09/30 10:58:52;;;;;;;18.50;6.00;;;;;;;28.79;37.53;98772.25;105911;1256;60424;-54
2023/09/30 11:01:22;;;;;;;;;;;;;;;28.93;36.71;98647.28;106049;1255;73617;-52
2023/09/30 11:03:56;;;;;;;17.80;5.50;;;;;;;28.58;35.62;98453.53;105974;1251;63244;-51
2023/09/30 11:06:23;;;;;;;13.90;5.90;;;;;;;28.11;37.06;98649.02;105906;1253;72651;-53
2023/09/30 11:08:54;;;;;;;16.00;5.70;;;;;;;27.90;37.21;98694.52;105973;1257;60484;-52
2023/09/30 11:11:39;;;;;;;14.50;5.70;;;;;;;28.04;37.76;98774.95;105919;1251;60415;-54